Time;durP1;ratioP1;P1;durP2;ratioP2;P2;SDS_P1;SDS_P2;PMS_P1;PMS_P2;Temp;Humidity;BMP_temperature;BMP_pressure;BME280_temperature;BME280_humidity;BME280_pressure;Samples;Min_cycle;Max_cycle;Signal;HPM_P1;HPM_P2
2022/01/10 00:01:28;;;;;;;4.78;3.12;;;;;;;-1.25;100.00;100658.03;4423250;32;20131;-74
2022/01/10 00:03:54;;;;;;;3.00;2.90;;;;;;;-1.29;100.00;100665.78;4429440;32;20102;-70
2022/01/10 00:06:19;;;;;;;3.67;3.58;;;;;;;-1.30;100.00;100662.38;4428163;32;20397;-71
2022/01/10 00:08:45;;;;;;;2.60;2.50;;;;;;;-1.29;100.00;100661.50;4430897;32;20165;-71
2022/01/10 00:11:10;;;;;;;4.05;3.85;;;;;;;-1.30;100.00;100664.94;4425213;32;20060;-71
2022/01/10 00:13:35;;;;;;;3.00;2.90;;;;;;;-1.36;100.00;100705.28;4431630;32;21489;-71
2022/01/10 00:16:01;;;;;;;2.67;2.58;;;;;;;-1.28;100.00;100676.09;4426968;32;20080;-71
2022/01/10 00:18:26;;;;;;;2.40;2.30;;;;;;;-1.47;100.00;100651.28;4424726;32;20068;-71
2022/01/10 00:20:51;;;;;;;2.47;2.37;;;;;;;-1.42;100.00;100659.84;4430963;32;20722;-70
2022/01/10 00:23:17;;;;;;;4.57;4.37;;;;;;;-1.33;100.00;100685.53;4419276;32;20068;-71
2022/01/10 00:25:42;;;;;;;2.70;2.60;;;;;;;-1.36;100.00;100690.72;4429504;32;20060;-72
2022/01/10 00:28:07;;;;;;;4.20;4.00;;;;;;;-1.37;100.00;100688.13;4424919;32;20128;-71
2022/01/10 00:30:33;;;;;;;2.40;2.30;;;;;;;-1.39;100.00;100692.44;4425416;32;20561;-71
2022/01/10 00:32:58;;;;;;;2.47;2.37;;;;;;;-1.41;100.00;100690.72;4438972;32;20071;-72
2022/01/10 00:35:23;;;;;;;2.97;2.87;;;;;;;-1.40;100.00;100691.59;4424632;32;20091;-72
2022/01/10 00:37:49;;;;;;;2.70;2.60;;;;;;;-1.42;100.00;100693.31;4431604;32;20475;-72
2022/01/10 00:40:15;;;;;;;4.62;4.43;;;;;;;-1.45;100.00;100698.47;4425219;32;20177;-73
2022/01/10 00:42:41;;;;;;;2.65;2.55;;;;;;;-1.46;100.00;100692.47;4430740;32;20088;-73
2022/01/10 00:45:17;;;;;;;4.05;3.87;;;;;;;-1.46;100.00;100709.62;4420053;32;20073;-72
2022/01/10 00:47:43;;;;;;;2.83;2.72;;;;;;;-1.46;100.00;100709.62;4433064;32;20080;-72
2022/01/10 00:50:08;;;;;;;4.25;4.03;;;;;;;-1.63;100.00;100686.50;4424364;32;20569;-72
2022/01/10 00:52:34;;;;;;;2.50;2.40;;;;;;;-1.46;100.00;100719.94;4439369;32;20080;-71
2022/01/10 00:54:59;;;;;;;2.50;2.40;;;;;;;-2.75;100.00;100517.00;4426839;32;20305;-72
2022/01/10 00:57:25;;;;;;;2.50;2.40;;;;;;;-1.47;100.00;100724.19;4425833;32;20071;-73
2022/01/10 00:59:50;;;;;;;2.70;2.60;;;;;;;-1.48;100.00;100719.91;4430102;32;20079;-72
2022/01/10 01:02:15;;;;;;;4.68;4.47;;;;;;;-1.49;100.00;100759.37;4418498;32;20553;-73
2022/01/10 01:04:41;;;;;;;2.50;2.40;;;;;;;-2.97;100.00;100487.91;4427920;32;20080;-73
2022/01/10 01:07:06;;;;;;;4.20;4.00;;;;;;;-1.52;100.00;100731.09;4426125;32;20092;-70
2022/01/10 01:09:32;;;;;;;2.67;2.53;;;;;;;-1.52;100.00;100745.69;4428940;32;20589;-72
2022/01/10 01:14:48;;;;;;;2.62;2.53;;;;;;;-1.58;100.00;100746.53;4444566;32;20063;-75
2022/01/10 01:17:15;;;;;;;4.15;3.95;;;;;;;-1.60;100.00;100745.69;4440064;32;20078;-72
2022/01/10 01:25:05;;;;;;;3.40;3.30;;;;;;;-1.62;100.00;100770.56;4439939;32;20075;-76
2022/01/10 01:27:30;;;;;;;2.80;2.70;;;;;;;-1.69;100.00;100769.69;4430497;32;20067;-75
2022/01/10 01:29:56;;;;;;;2.40;2.30;;;;;;;-1.63;100.00;100781.69;4424229;32;20060;-75
2022/01/10 01:32:22;;;;;;;3.10;3.00;;;;;;;-1.64;100.00;100790.28;4430005;32;20926;-76
2022/01/10 01:34:47;;;;;;;2.40;2.30;;;;;;;-1.66;100.00;100792.00;4431528;32;20136;-77
2022/01/10 01:37:13;;;;;;;4.85;4.45;;;;;;;-1.70;100.00;100804.00;4425189;32;20052;-74
2022/01/10 01:39:38;;;;;;;2.33;2.22;;;;;;;-1.75;100.00;100794.56;4425954;32;20159;-75
2022/01/10 01:42:17;;;;;;;3.20;3.10;;;;;;;-1.82;100.00;100791.16;4429745;32;20086;-76
2022/01/10 01:44:42;;;;;;;2.35;2.25;;;;;;;-1.70;100.00;100806.59;4431973;32;20078;-72
2022/01/10 01:47:08;;;;;;;4.25;4.05;;;;;;;-1.90;100.00;100772.28;4422228;32;20056;-74
2022/01/10 01:49:33;;;;;;;2.50;2.40;;;;;;;-2.01;100.00;100761.97;4427262;32;20076;-72
2022/01/10 01:51:58;;;;;;;2.80;2.70;;;;;;;-1.67;100.00;100818.56;4423483;31;20786;-76
2022/01/10 01:54:24;;;;;;;2.67;2.58;;;;;;;-1.64;100.00;100824.59;4433837;32;20101;-73
2022/01/10 01:56:49;;;;;;;2.67;2.58;;;;;;;-1.57;100.00;100830.59;4425094;32;20057;-73
2022/01/10 01:59:16;;;;;;;4.78;4.57;;;;;;;-1.63;100.00;100830.59;4420819;32;21030;-70
2022/01/10 02:01:42;;;;;;;2.40;2.30;;;;;;;-1.47;100.00;100842.59;4424377;32;20605;-75
2022/01/10 02:04:07;;;;;;;4.12;3.92;;;;;;;-2.50;100.00;100659.16;4422602;32;20095;-72
2022/01/10 02:06:32;;;;;;;2.83;2.72;;;;;;;-2.44;100.00;100665.16;4430535;32;20533;-72
2022/01/10 02:08:58;;;;;;;2.40;2.30;;;;;;;-1.31;100.00;100847.72;4420989;32;20455;-73
2022/01/10 02:11:23;;;;;;;3.22;3.03;;;;;;;-1.27;100.00;100858.00;4422181;32;20094;-72
2022/01/10 02:13:48;;;;;;;2.40;2.30;;;;;;;-1.25;100.00;100847.72;4440254;32;20084;-74
2022/01/10 02:16:21;;;;;;;4.68;4.47;;;;;;;-1.12;100.00;100864.00;4425747;32;20668;-72
2022/01/10 02:18:47;;;;;;;2.60;2.50;;;;;;;-1.08;100.00;100860.59;4427134;32;20090;-72
2022/01/10 02:21:14;;;;;;;3.90;3.75;;;;;;;-1.06;100.00;100859.72;4420683;32;20072;-75
2022/01/10 02:23:40;;;;;;;2.50;2.40;;;;;;;-1.47;100.00;100798.81;4428333;32;20090;-75
2022/01/10 02:26:05;;;;;;;3.25;3.15;;;;;;;-1.19;100.00;100847.72;4418664;32;20075;-73
2022/01/10 02:28:32;;;;;;;2.53;2.42;;;;;;;-1.07;100.00;100870.03;4424603;32;20072;-73
2022/01/10 02:30:58;;;;;;;2.60;2.50;;;;;;;-1.09;100.00;100876.88;4423381;32;20080;-75
2022/01/10 02:33:28;;;;;;;2.42;2.33;;;;;;;-1.15;100.00;100885.47;4420984;32;20063;-73
2022/01/10 02:36:04;;;;;;;2.40;2.30;;;;;;;-1.24;100.00;100881.19;4418574;32;20068;-73
2022/01/10 02:38:30;;;;;;;2.60;2.50;;;;;;;-1.33;100.00;100885.50;4415219;32;20088;-74
2022/01/10 02:40:56;;;;;;;2.60;2.50;;;;;;;-1.42;100.00;100881.22;4405658;32;20157;-75
2022/01/10 02:43:22;;;;;;;3.05;2.95;;;;;;;-1.46;100.00;100895.78;4413738;32;20075;-72
2022/01/10 02:45:47;;;;;;;2.40;2.30;;;;;;;-1.47;100.00;100894.06;4410255;32;20069;-76
2022/01/10 02:48:13;;;;;;;4.85;4.65;;;;;;;-1.52;100.00;100900.09;4406612;32;20071;-73
2022/01/10 02:50:38;;;;;;;2.60;2.50;;;;;;;-1.91;100.00;100845.16;4407685;32;20080;-75
2022/01/10 02:53:03;;;;;;;3.50;3.40;;;;;;;-1.65;100.00;100912.91;4419684;32;20092;-75
2022/01/10 02:55:29;;;;;;;2.50;2.40;;;;;;;-1.68;100.00;100912.09;4412214;32;20069;-74
2022/01/10 02:57:54;;;;;;;2.47;2.37;;;;;;;-1.78;100.00;100907.75;4403720;32;20138;-73
2022/01/10 03:00:21;;;;;;;3.45;3.35;;;;;;;-2.21;100.00;100851.94;4424538;32;20056;-73
2022/01/10 03:02:50;;;;;;;2.30;2.20;;;;;;;-1.93;100.00;100918.87;4418269;32;20091;-71
2022/01/10 03:05:16;;;;;;;4.72;4.43;;;;;;;-1.86;100.00;100936.91;4417690;32;20175;-75
2022/01/10 03:07:41;;;;;;;2.42;2.33;;;;;;;-1.88;100.00;100938.63;4413840;32;20064;-73
2022/01/10 03:10:07;;;;;;;4.07;3.90;;;;;;;-1.92;100.00;100961.75;4409923;32;20105;-74
2022/01/10 03:12:33;;;;;;;2.50;2.40;;;;;;;-2.08;100.00;100930.00;4413171;32;20088;-72
2022/01/10 03:14:59;;;;;;;2.37;2.28;;;;;;;-1.92;100.00;100957.47;4417014;32;20680;-75
2022/01/10 03:17:25;;;;;;;2.40;2.30;;;;;;;-1.90;100.00;100955.75;4417022;32;20079;-72
2022/01/10 03:19:50;;;;;;;2.30;2.20;;;;;;;-1.90;100.00;100960.06;4429208;32;20104;-74
2022/01/10 03:22:15;;;;;;;4.55;4.35;;;;;;;-1.89;100.00;100961.75;4422494;32;20399;-72
2022/01/10 03:24:41;;;;;;;2.30;2.20;;;;;;;-1.91;100.00;100956.59;4429812;32;20084;-72
2022/01/10 03:27:06;;;;;;;3.67;3.55;;;;;;;-1.90;100.00;100960.91;4415229;32;20059;-71
2022/01/10 03:29:31;;;;;;;2.50;2.40;;;;;;;-1.94;100.00;100953.19;4425431;32;20439;-74
2022/01/10 03:31:57;;;;;;;2.50;2.40;;;;;;;-1.81;100.00;100978.91;4419853;32;20071;-72
2022/01/10 03:34:22;;;;;;;2.60;2.50;;;;;;;-1.77;100.00;100986.66;4409096;32;20052;-74
2022/01/10 03:36:47;;;;;;;2.40;2.30;;;;;;;-1.73;100.00;100994.38;4419450;32;20530;-72
2022/01/10 03:39:13;;;;;;;3.95;3.78;;;;;;;-1.70;100.00;100996.97;4407265;32;20079;-72
2022/01/10 03:41:38;;;;;;;2.83;2.72;;;;;;;-1.72;100.00;100974.69;4426035;32;20191;-71
2022/01/10 03:44:04;;;;;;;3.37;3.25;;;;;;;-1.64;100.00;100983.28;4412715;32;20597;-74
2022/01/10 03:46:32;;;;;;;2.30;2.20;;;;;;;-1.63;100.00;100984.97;4428265;32;20438;-76
2022/01/10 03:48:58;;;;;;;2.40;2.30;;;;;;;-1.63;100.00;100987.56;4412998;32;20194;-73
2022/01/10 03:51:23;;;;;;;3.70;3.50;;;;;;;-1.64;100.00;100991.84;4411239;32;20059;-71
2022/01/10 03:53:48;;;;;;;2.40;2.30;;;;;;;-1.65;100.00;100994.41;4419044;32;20076;-71
2022/01/10 03:56:14;;;;;;;4.03;3.85;;;;;;;-1.55;100.00;101011.59;4413504;32;20133;-73
2022/01/10 03:58:39;;;;;;;2.30;2.20;;;;;;;-1.49;100.00;101003.03;4426122;32;20082;-74
2022/01/10 04:01:05;;;;;;;4.43;4.22;;;;;;;-1.44;100.00;101002.19;4426142;32;20072;-76
2022/01/10 04:03:31;;;;;;;2.30;2.20;;;;;;;-1.39;100.00;101011.62;4408063;32;20534;-73
2022/01/10 04:05:58;;;;;;;2.37;2.28;;;;;;;-1.69;100.00;100957.50;4416855;32;20072;-73
2022/01/10 04:08:24;;;;;;;2.95;2.85;;;;;;;-1.35;100.00;101010.78;4413721;32;20101;-75
2022/01/10 04:10:51;;;;;;;3.50;3.25;;;;;;;-1.24;100.00;101024.53;4409192;32;20554;-73
2022/01/10 04:13:16;;;;;;;2.40;2.30;;;;;;;-1.55;100.00;100985.84;4412540;32;20593;-74
2022/01/10 04:15:41;;;;;;;2.50;2.40;;;;;;;-1.75;100.00;100938.63;4414727;32;20356;-72
2022/01/10 04:18:07;;;;;;;4.15;3.95;;;;;;;-1.23;100.00;101036.53;4411154;32;20083;-74
2022/01/10 04:20:33;;;;;;;2.37;2.28;;;;;;;-1.24;100.00;101035.69;4413786;32;20072;-72
2022/01/10 04:22:58;;;;;;;2.58;2.47;;;;;;;-1.33;100.00;101035.66;4410212;32;20620;-75
2022/01/10 04:25:23;;;;;;;2.40;2.30;;;;;;;-1.27;100.00;101055.41;4409331;32;20071;-73
2022/01/10 04:27:49;;;;;;;2.40;2.30;;;;;;;-1.28;100.00;101064.88;4409828;32;20073;-72
2022/01/10 04:30:14;;;;;;;4.55;4.35;;;;;;;-1.33;100.00;101056.25;4405104;32;20566;-73
2022/01/10 04:32:42;;;;;;;2.53;2.42;;;;;;;-1.28;100.00;101070.03;4427725;32;20153;-73
2022/01/10 04:35:07;;;;;;;3.92;3.78;;;;;;;-1.41;100.00;101050.25;4425870;32;20348;-73
2022/01/10 04:37:33;;;;;;;2.60;2.50;;;;;;;-1.46;100.00;101044.22;4412888;32;20091;-73
2022/01/10 04:39:58;;;;;;;2.42;2.33;;;;;;;-1.69;100.00;100998.69;4409505;32;20576;-73
2022/01/10 04:42:23;;;;;;;2.75;2.65;;;;;;;-1.13;100.00;101094.09;4407473;32;20146;-74
2022/01/10 04:44:49;;;;;;;2.37;2.28;;;;;;;-1.17;100.00;101097.50;4410582;32;20064;-73
2022/01/10 04:47:15;;;;;;;5.07;4.78;;;;;;;-1.09;100.00;101106.12;4402892;32;20122;-74
2022/01/10 04:50:05;;;;;;;3.08;2.97;;;;;;;-1.23;100.00;101093.19;4412832;32;20090;-72
2022/01/10 04:52:28;;;;;;;2.20;2.10;;;;;;;-1.04;100.00;101119.88;4430792;32;20060;-73
2022/01/10 04:54:54;;;;;;;2.40;2.30;;;;;;;-1.09;100.00;101109.53;4427494;32;20231;-75
2022/01/10 04:57:19;;;;;;;3.37;3.28;;;;;;;-1.01;100.00;101127.59;4413333;32;20056;-73
2022/01/10 04:59:45;;;;;;;2.35;2.25;;;;;;;-1.01;100.00;101136.16;4418025;32;20620;-73
2022/01/10 05:02:10;;;;;;;3.83;3.70;;;;;;;-0.98;100.00;101134.47;4432510;32;20083;-75
2022/01/10 05:04:36;;;;;;;2.70;2.60;;;;;;;-0.93;100.00;101153.38;4422066;32;20762;-73
2022/01/10 05:07:01;;;;;;;2.70;2.60;;;;;;;-0.94;100.00;101149.94;4418998;32;20202;-73
2022/01/10 05:09:26;;;;;;;2.50;2.40;;;;;;;-0.88;100.00;101147.38;4408425;32;20080;-73
2022/01/10 05:11:52;;;;;;;2.60;2.50;;;;;;;-0.77;100.00;101159.44;4409944;32;20072;-73
2022/01/10 05:14:17;;;;;;;3.72;3.60;;;;;;;-0.84;100.00;101145.69;4414854;32;20076;-75
2022/01/10 05:16:44;;;;;;;2.50;2.40;;;;;;;-0.70;100.00;101168.87;4416450;32;20562;-73
2022/01/10 05:19:09;;;;;;;4.15;3.95;;;;;;;-0.70;100.00;101168.87;4409901;32;20648;-73
2022/01/10 05:21:35;;;;;;;2.60;2.50;;;;;;;-0.67;100.00;101176.63;4415420;32;20087;-74
2022/01/10 05:24:01;;;;;;;2.62;2.53;;;;;;;-0.64;100.00;101186.94;4413985;32;20509;-74
2022/01/10 05:26:26;;;;;;;2.50;2.40;;;;;;;-0.62;100.00;101190.38;4405074;32;20076;-76
2022/01/10 05:28:59;;;;;;;2.30;2.20;;;;;;;-0.67;100.00;101186.94;4411059;32;20084;-72
2022/01/10 05:31:24;;;;;;;2.50;2.40;;;;;;;-0.62;100.00;101195.53;4407037;32;20076;-71
2022/01/10 05:33:50;;;;;;;2.40;2.30;;;;;;;-0.70;100.00;101187.78;4414933;32;20478;-75
2022/01/10 05:36:16;;;;;;;2.50;2.40;;;;;;;-0.60;100.00;101201.56;4430226;32;20607;-74
2022/01/10 05:38:41;;;;;;;2.50;2.40;;;;;;;-0.68;100.00;101195.50;4407176;32;20636;-73
2022/01/10 05:41:06;;;;;;;4.75;4.55;;;;;;;-0.63;100.00;101214.44;4405430;32;20072;-74
2022/01/10 05:43:32;;;;;;;2.30;2.20;;;;;;;-1.55;100.00;101067.34;4412439;32;20072;-72
2022/01/10 05:45:57;;;;;;;2.45;2.35;;;;;;;-0.72;100.00;101229.84;4406075;32;20904;-72
2022/01/10 05:48:26;;;;;;;2.70;2.60;;;;;;;-1.07;100.00;101199.69;4416114;32;20083;-73
2022/01/10 05:50:52;;;;;;;2.70;2.60;;;;;;;-0.84;100.00;101234.13;4413453;32;20064;-72
2022/01/10 05:53:18;;;;;;;4.47;4.28;;;;;;;-0.84;100.00;101239.28;4422750;32;20482;-73
2022/01/10 05:55:43;;;;;;;2.85;2.75;;;;;;;-0.87;100.00;101252.16;4413932;32;20068;-72
2022/01/10 05:58:08;;;;;;;4.12;3.92;;;;;;;-0.90;100.00;101259.88;4415094;32;20092;-72
2022/01/10 06:00:34;;;;;;;2.70;2.60;;;;;;;-1.11;100.00;101242.59;4428384;32;20110;-74
2022/01/10 06:03:00;;;;;;;2.62;2.53;;;;;;;-0.99;100.00;101274.44;4409733;32;21548;-75
2022/01/10 06:05:30;;;;;;;2.45;2.35;;;;;;;-1.17;100.00;101249.44;4414929;32;20258;-74
2022/01/10 06:07:56;;;;;;;2.50;2.40;;;;;;;-1.02;100.00;101290.75;4416892;32;20210;-76
2022/01/10 06:10:21;;;;;;;3.00;2.90;;;;;;;-1.07;100.00;101274.41;4410049;32;20099;-74
2022/01/10 06:12:47;;;;;;;2.30;2.20;;;;;;;-1.08;100.00;101291.56;4419093;32;20090;-77
2022/01/10 06:15:12;;;;;;;3.97;3.80;;;;;;;-1.33;100.00;101259.66;4416543;32;20106;-73
2022/01/10 06:17:37;;;;;;;2.40;2.30;;;;;;;-1.89;100.00;101168.38;4411251;32;20583;-72
2022/01/10 06:20:03;;;;;;;2.50;2.40;;;;;;;-1.22;100.00;101288.91;4411163;32;20100;-76
2022/01/10 06:22:29;;;;;;;2.50;2.40;;;;;;;-1.11;100.00;101311.28;4402175;32;20110;-71
2022/01/10 06:24:54;;;;;;;2.30;2.20;;;;;;;-1.13;100.00;101316.44;4417386;32;20106;-74
2022/01/10 06:27:20;;;;;;;3.55;3.45;;;;;;;-1.25;100.00;101306.91;4410963;32;20072;-73
2022/01/10 06:29:45;;;;;;;2.75;2.65;;;;;;;-1.14;100.00;101331.87;4425625;32;20110;-73
2022/01/10 06:32:10;;;;;;;3.80;3.62;;;;;;;-1.21;100.00;101313.81;4416533;32;20061;-72
2022/01/10 06:34:36;;;;;;;2.42;2.33;;;;;;;-1.21;100.00;101333.56;4418110;32;20083;-77
2022/01/10 06:37:02;;;;;;;2.72;2.62;;;;;;;-1.23;100.00;101330.09;4416690;32;20096;-74
2022/01/10 06:39:28;;;;;;;3.05;2.92;;;;;;;-1.29;100.00;101374.69;4407438;32;20067;-76
2022/01/10 06:41:53;;;;;;;2.40;2.30;;;;;;;-1.34;100.00;101337.78;4415350;32;21048;-77
2022/01/10 06:44:18;;;;;;;4.28;4.07;;;;;;;-1.24;100.00;101346.41;4408565;32;20141;-73
2022/01/10 06:46:44;;;;;;;2.50;2.40;;;;;;;-1.26;100.00;101354.12;4407611;32;20071;-73
2022/01/10 06:49:09;;;;;;;4.50;4.30;;;;;;;-1.32;100.00;101360.94;4413275;32;20084;-76
2022/01/10 06:51:34;;;;;;;2.50;2.40;;;;;;;-1.39;100.00;101359.19;4411687;32;20170;-74
2022/01/10 06:54:00;;;;;;;2.40;2.30;;;;;;;-1.44;100.00;101372.87;4414217;32;20072;-77
2022/01/10 06:56:25;;;;;;;2.30;2.20;;;;;;;-1.42;100.00;101370.31;4405646;32;20468;-73
2022/01/10 06:58:51;;;;;;;2.17;2.08;;;;;;;-1.50;100.00;101370.25;4411268;32;20091;-75
2022/01/10 07:01:18;;;;;;;4.03;3.85;;;;;;;-1.77;100.00;101345.13;4410669;32;20087;-74
2022/01/10 07:03:44;;;;;;;2.20;2.10;;;;;;;-1.61;100.00;101390.72;4422968;32;20068;-76
2022/01/10 07:06:10;;;;;;;3.72;3.62;;;;;;;-2.06;100.00;101326.88;4412707;32;20080;-75
2022/01/10 07:08:35;;;;;;;2.45;2.35;;;;;;;-1.68;100.00;101399.25;4414040;32;20076;-75
2022/01/10 07:11:00;;;;;;;2.30;2.20;;;;;;;-2.65;100.00;101249.12;4413723;32;20064;-74
2022/01/10 07:13:26;;;;;;;2.30;2.20;;;;;;;-1.77;100.00;101414.59;4411514;32;20095;-76
2022/01/10 07:15:52;;;;;;;2.40;2.30;;;;;;;-1.86;100.00;101411.94;4419978;32;20057;-72
2022/01/10 07:18:17;;;;;;;4.32;4.12;;;;;;;-1.84;100.00;101420.56;4412209;32;20091;-75
2022/01/10 07:20:42;;;;;;;2.40;2.30;;;;;;;-1.89;100.00;101432.50;4409906;32;20064;-73
2022/01/10 07:23:08;;;;;;;4.25;4.05;;;;;;;-2.02;100.00;101419.50;4431737;32;20087;-75
2022/01/10 07:25:35;;;;;;;2.50;2.40;;;;;;;-1.97;100.00;101439.25;4410188;32;20072;-73
2022/01/10 07:28:00;;;;;;;2.85;2.75;;;;;;;-3.28;100.00;101250.09;4414716;32;20068;-73
2022/01/10 07:30:25;;;;;;;3.05;2.85;;;;;;;-2.68;100.00;101356.16;4406540;32;20667;-71
2022/01/10 07:32:51;;;;;;;2.80;2.70;;;;;;;-2.46;100.00;101401.84;4417624;32;20068;-74
2022/01/10 07:35:17;;;;;;;4.53;4.32;;;;;;;-2.08;100.00;101470.00;4413881;32;20479;-72
2022/01/10 07:37:42;;;;;;;2.30;2.20;;;;;;;-2.10;100.00;101472.56;4407755;32;20084;-73
2022/01/10 07:40:08;;;;;;;4.10;3.90;;;;;;;-2.44;100.00;101425.84;4413901;32;20471;-72
2022/01/10 07:42:33;;;;;;;2.80;2.70;;;;;;;-2.34;100.00;101459.41;4409007;32;20095;-73
2022/01/10 07:44:58;;;;;;;2.78;2.67;;;;;;;-2.10;100.00;101487.97;4408474;32;20080;-73
2022/01/10 07:47:24;;;;;;;2.40;2.30;;;;;;;-2.29;100.00;101470.59;4409039;32;20161;-74
2022/01/10 07:49:51;;;;;;;2.30;2.20;;;;;;;-2.91;100.00;101372.09;4423992;32;20198;-73
2022/01/10 07:52:17;;;;;;;5.37;5.15;;;;;;;-2.16;100.00;101502.47;4408147;32;20052;-72
2022/01/10 07:54:44;;;;;;;2.10;2.00;;;;;;;-2.17;100.00;101506.72;4412346;32;20707;-74
2022/01/10 07:57:09;;;;;;;3.60;3.50;;;;;;;-2.16;100.00;101516.19;4423974;32;20243;-73
2022/01/10 07:59:35;;;;;;;2.15;2.05;;;;;;;-2.22;100.00;101505.81;4407626;32;20555;-72
2022/01/10 08:02:00;;;;;;;2.40;2.30;;;;;;;-3.54;100.00;101283.94;4404652;32;20083;-73
2022/01/10 08:04:25;;;;;;;2.58;2.47;;;;;;;-2.19;100.00;101521.28;4409352;32;20166;-72
2022/01/10 08:06:51;;;;;;;2.70;2.60;;;;;;;-2.14;100.00;101531.66;4410798;32;20472;-74
2022/01/10 08:09:16;;;;;;;5.00;4.62;;;;;;;-2.17;100.00;101531.59;4419908;32;20459;-72
2022/01/10 08:11:42;;;;;;;2.55;2.45;;;;;;;-2.11;100.00;101529.09;4410404;32;20076;-74
2022/01/10 08:14:07;;;;;;;3.40;3.30;;;;;;;-1.99;100.00;101554.12;4418088;32;20077;-74
2022/01/10 08:16:32;;;;;;;2.37;2.28;;;;;;;-2.01;100.00;101565.22;4427163;32;20079;-73
2022/01/10 08:18:58;;;;;;;2.42;2.33;;;;;;;-2.15;100.00;101541.03;4412636;32;20701;-75
2022/01/10 08:21:23;;;;;;;2.40;2.30;;;;;;;-1.95;100.00;101566.19;4407505;32;20144;-73
2022/01/10 08:23:48;;;;;;;2.50;2.40;;;;;;;-2.20;100.00;101524.72;4412497;32;20072;-73
2022/01/10 08:26:14;;;;;;;4.03;3.85;;;;;;;-1.98;100.00;101566.13;4405605;32;20088;-73
2022/01/10 08:28:39;;;;;;;2.72;2.62;;;;;;;-2.72;100.00;101439.19;4410146;32;20076;-74
2022/01/10 08:31:05;;;;;;;4.47;4.30;;;;;;;-1.83;100.00;101584.34;4410815;32;20250;-73
2022/01/10 08:33:30;;;;;;;3.05;2.95;;;;;;;-1.85;100.00;101588.59;4409480;32;20079;-74
2022/01/10 08:35:56;;;;;;;3.00;2.90;;;;;;;-1.84;100.00;101590.34;4417048;32;20091;-72
2022/01/10 08:38:21;;;;;;;2.90;2.80;;;;;;;-1.84;100.00;101585.19;4407544;32;20759;-74
2022/01/10 08:40:47;;;;;;;2.30;2.20;;;;;;;-1.81;100.00;101590.38;4408491;32;20463;-73
2022/01/10 08:43:12;;;;;;;3.83;3.70;;;;;;;-1.86;100.00;101581.75;4409027;32;20396;-73
2022/01/10 08:45:38;;;;;;;2.47;2.37;;;;;;;-1.70;100.00;101599.09;4421647;32;20225;-72
2022/01/10 08:48:04;;;;;;;3.08;2.97;;;;;;;-1.63;100.00;101603.47;4426879;32;20075;-73
2022/01/10 08:50:30;;;;;;;2.42;2.33;;;;;;;-1.55;100.00;101607.84;4409769;32;20082;-70
2022/01/10 08:52:55;;;;;;;2.80;2.70;;;;;;;-1.53;100.00;101603.59;4411578;32;20068;-77
2022/01/10 08:55:21;;;;;;;2.30;2.20;;;;;;;-2.45;100.00;101444.66;4410607;32;20072;-72
2022/01/10 08:57:46;;;;;;;2.30;2.20;;;;;;;-1.39;100.00;101614.91;4409843;32;20079;-72
2022/01/10 09:00:13;;;;;;;4.55;4.35;;;;;;;-1.44;100.00;101594.28;4405272;32;20225;-74
2022/01/10 09:02:38;;;;;;;2.40;2.30;;;;;;;-1.61;100.00;101552.03;4436027;32;20099;-71
2022/01/10 09:05:04;;;;;;;4.45;4.20;;;;;;;-1.05;100.00;101644.47;4412248;32;20790;-72
2022/01/10 09:07:32;;;;;;;2.62;2.53;;;;;;;-0.95;100.00;101642.88;4410742;32;20075;-71
2022/01/10 09:09:58;;;;;;;2.40;2.30;;;;;;;-0.85;100.00;101636.09;4408875;32;20083;-71
2022/01/10 09:12:23;;;;;;;2.75;2.65;;;;;;;-0.74;100.00;101641.34;4403615;32;20341;-74
2022/01/10 09:14:49;;;;;;;2.80;2.70;;;;;;;-0.66;100.00;101645.75;4411837;32;20075;-74
2022/01/10 09:17:14;;;;;;;3.83;3.67;;;;;;;-0.62;100.00;101638.91;4423588;32;20083;-75
2022/01/10 09:19:39;;;;;;;2.45;2.35;;;;;;;-0.47;100.00;101653.66;4426273;32;20068;-73
2022/01/10 09:22:05;;;;;;;3.30;3.20;;;;;;;-0.38;100.00;101663.16;4403065;32;20538;-71
2022/01/10 09:24:30;;;;;;;2.50;2.40;;;;;;;-0.32;100.00;101661.53;4420553;32;20094;-73
2022/01/10 09:26:56;;;;;;;2.85;2.75;;;;;;;-0.19;100.00;101672.78;4403571;32;20507;-73
2022/01/10 09:29:23;;;;;;;3.58;3.47;;;;;;;-0.09;100.00;101674.59;4422033;32;20578;-74
2022/01/10 09:31:48;;;;;;;2.30;2.20;;;;;;;0.01;100.00;101674.66;4424444;32;20198;-73
2022/01/10 09:34:13;;;;;;;4.15;3.95;;;;;;;0.11;100.00;101679.03;4420910;32;20068;-75
2022/01/10 09:36:39;;;;;;;2.90;2.80;;;;;;;0.15;100.00;101670.44;4408301;32;20086;-72
2022/01/10 09:39:04;;;;;;;3.58;3.47;;;;;;;0.27;100.00;101683.44;4411527;32;20060;-73
2022/01/10 09:41:29;;;;;;;2.50;2.40;;;;;;;-0.04;100.00;101618.72;4401423;32;20076;-74
2022/01/10 09:44:02;;;;;;;2.70;2.60;;;;;;;0.16;100.00;101646.34;4410004;32;20578;-71
2022/01/10 09:46:28;;;;;;;3.08;2.97;;;;;;;0.48;100.00;101681.81;4407134;32;20087;-73
2022/01/10 09:48:53;;;;;;;3.15;3.00;;;;;;;0.63;100.00;101683.63;4408381;32;20076;-73
2022/01/10 09:51:20;;;;;;;3.55;3.45;;;;;;;0.27;100.00;101615.47;4409648;32;20084;-74
2022/01/10 09:53:45;;;;;;;2.60;2.50;;;;;;;0.79;100.00;101696.62;4408803;32;20069;-72
2022/01/10 09:56:10;;;;;;;4.22;4.03;;;;;;;0.89;100.00;101691.50;4410044;32;20466;-75
2022/01/10 09:58:36;;;;;;;2.50;2.40;;;;;;;0.99;100.00;101698.44;4426047;32;20075;-75
2022/01/10 10:01:01;;;;;;;2.78;2.67;;;;;;;1.05;100.00;101710.50;4411584;32;20099;-74
2022/01/10 10:03:26;;;;;;;2.70;2.60;;;;;;;1.10;100.00;101722.59;4405567;32;20514;-74
2022/01/10 10:05:53;;;;;;;2.70;2.60;;;;;;;1.11;100.00;101710.53;4404412;32;20541;-72
2022/01/10 10:08:23;;;;;;;4.10;3.90;;;;;;;1.29;100.00;101733.84;4410068;32;20533;-75
2022/01/10 10:10:49;;;;;;;2.50;2.40;;;;;;;1.35;100.00;101731.28;4405762;32;20065;-73
2022/01/10 10:13:15;;;;;;;4.55;4.35;;;;;;;1.46;100.00;101728.69;4407486;32;20082;-74
2022/01/10 10:15:41;;;;;;;2.72;2.62;;;;;;;1.58;100.00;101736.50;4411219;32;20768;-72
2022/01/10 10:18:08;;;;;;;4.15;3.95;;;;;;;1.57;100.00;101711.50;4419267;32;20166;-73
2022/01/10 10:20:34;;;;;;;2.80;2.70;;;;;;;1.84;100.00;101739.97;4411309;32;20449;-74
2022/01/10 10:22:59;;;;;;;3.00;2.90;;;;;;;1.82;100.00;101719.25;4406393;32;20107;-76
2022/01/10 10:25:25;;;;;;;2.62;2.53;;;;;;;2.04;100.00;101746.00;4402415;32;20083;-74
2022/01/10 10:27:50;;;;;;;3.85;3.53;;;;;;;1.79;100.00;101686.50;4411438;32;20149;-73
2022/01/10 10:30:19;;;;;;;4.95;4.75;;;;;;;2.29;100.00;101736.53;4408550;32;20648;-73
2022/01/10 10:32:44;;;;;;;2.80;2.70;;;;;;;2.37;100.00;101742.56;4408605;32;20064;-72
2022/01/10 10:35:10;;;;;;;5.20;5.00;;;;;;;2.47;100.00;101752.91;4410448;32;20588;-72
2022/01/10 10:37:40;;;;;;;3.15;3.00;;;;;;;2.37;100.00;101716.66;4409948;32;20082;-73
2022/01/10 10:40:09;;;;;;;3.37;3.28;;;;;;;2.70;100.00;101743.34;4401170;32;20088;-75
2022/01/10 10:42:37;;;;;;;9.93;3.95;;;;;;;2.87;100.00;101745.03;4407622;32;20655;-74
2022/01/10 10:45:04;;;;;;;3.67;3.53;;;;;;;3.02;100.00;101754.47;4407748;32;20082;-74
2022/01/10 10:47:30;;;;;;;2.97;2.87;;;;;;;3.02;100.00;101744.97;4410477;32;19991;-72
2022/01/10 10:49:58;;;;;;;2.90;2.80;;;;;;;3.08;100.00;101739.75;4412716;32;20141;-72
2022/01/10 10:52:32;;;;;;;3.17;3.08;;;;;;;3.27;100.00;101755.22;4407505;32;20893;-74
2022/01/10 10:55:04;;;;;;;2.90;2.80;;;;;;;1.82;100.00;101517.41;4407890;32;20182;-71
2022/01/10 10:57:32;;;;;;;3.42;3.33;;;;;;;3.36;100.00;101755.19;4422156;32;20186;-72
2022/01/10 10:59:59;;;;;;;3.05;2.95;;;;;;;3.44;100.00;101768.13;4408578;32;20431;-71
2022/01/10 11:02:24;;;;;;;3.65;3.47;;;;;;;3.52;100.00;101769.78;4407296;32;20076;-76
2022/01/10 11:04:49;;;;;;;3.25;3.15;;;;;;;3.63;100.00;101768.87;4411984;32;20074;-75
2022/01/10 11:07:16;;;;;;;4.80;4.60;;;;;;;3.73;100.00;101770.56;4406196;32;20652;-73
2022/01/10 11:09:42;;;;;;;3.10;3.00;;;;;;;3.78;100.00;101766.19;4412268;32;20565;-74
2022/01/10 11:12:07;;;;;;;4.55;4.35;;;;;;;3.72;100.00;101764.47;4407394;32;20094;-72
2022/01/10 11:14:33;;;;;;;3.30;3.20;;;;;;;3.82;100.00;101751.44;4408216;32;20096;-76
2022/01/10 11:16:58;;;;;;;3.20;3.10;;;;;;;4.07;100.00;101780.69;4403697;32;20573;-73
2022/01/10 11:19:26;;;;;;;3.12;3.03;;;;;;;4.06;100.00;101774.62;4405961;32;20169;-72
2022/01/10 11:22:04;;;;;;;3.10;3.00;;;;;;;4.20;99.90;101787.50;4412602;32;20076;-73